createdAt,value
2022-09-14T00:00:36.255Z,5.20
2022-09-14T00:01:36.325Z,5.10
2022-09-14T00:02:36.225Z,5.60
2022-09-14T00:03:36.078Z,5.60
2022-09-14T00:04:35.997Z,5.00
2022-09-14T00:05:35.932Z,5.30
2022-09-14T00:06:35.926Z,5.30
2022-09-14T00:07:35.786Z,5.50
2022-09-14T00:08:35.748Z,5.20
2022-09-14T00:09:36.000Z,4.80
2022-09-14T00:10:35.632Z,6.40
2022-09-14T00:11:35.534Z,4.70
2022-09-14T00:12:35.480Z,4.90
2022-09-14T00:13:35.397Z,5.10
2022-09-14T00:14:35.366Z,4.80
2022-09-14T00:15:36.066Z,4.90
2022-09-14T00:16:35.305Z,7.10
2022-09-14T00:17:35.144Z,4.50
2022-09-14T00:18:35.115Z,4.70
2022-09-14T00:19:35.012Z,6.90
2022-09-14T00:20:34.946Z,5.80
2022-09-14T00:21:36.886Z,6.90
2022-09-14T00:22:34.812Z,5.30
2022-09-14T00:23:34.748Z,4.40
2022-09-14T00:24:34.714Z,4.20
2022-09-14T00:25:34.639Z,4.10
2022-09-14T00:26:34.601Z,4.80
2022-09-14T00:27:34.521Z,4.10
2022-09-14T00:28:34.454Z,9.40
2022-09-14T00:29:34.383Z,5.70
2022-09-14T00:30:34.345Z,4.60
2022-09-14T00:31:34.288Z,4.00
2022-09-14T00:32:34.173Z,7.80
2022-09-14T00:33:34.139Z,3.60
2022-09-14T00:34:34.075Z,4.20
2022-09-14T00:35:33.985Z,3.80
2022-09-14T00:36:33.917Z,3.80
2022-09-14T00:37:33.952Z,3.90
2022-09-14T00:38:33.794Z,3.90
2022-09-14T00:39:33.768Z,4.10
2022-09-14T00:40:33.654Z,4.10
2022-09-14T00:41:33.614Z,3.90
2022-09-14T00:42:33.570Z,3.90
2022-09-14T00:43:33.496Z,4.30
2022-09-14T00:44:33.423Z,3.70
2022-09-14T00:45:33.401Z,4.00
2022-09-14T00:46:34.211Z,4.50
2022-09-14T00:47:33.198Z,3.60
2022-09-14T00:48:33.148Z,4.30
2022-09-14T00:49:33.083Z,3.60
2022-09-14T00:50:33.024Z,3.70
2022-09-14T00:51:33.008Z,8.20
2022-09-14T00:52:32.895Z,4.10
2022-09-14T00:53:32.828Z,5.10
2022-09-14T00:54:32.767Z,3.70
2022-09-14T00:55:32.694Z,9.50
2022-09-14T00:56:32.614Z,3.60
2022-09-14T00:57:32.577Z,2.90
2022-09-14T00:58:32.501Z,2.80
2022-09-14T00:59:32.440Z,4.30
2022-09-14T01:00:32.360Z,3.00
2022-09-14T01:01:32.377Z,5.30
2022-09-14T01:02:32.267Z,3.60
2022-09-14T01:03:32.549Z,2.90
2022-09-14T01:04:32.097Z,12.00
2022-09-14T01:05:32.031Z,2.70
2022-09-14T01:06:31.969Z,4.90
2022-09-14T01:07:31.924Z,2.90
2022-09-14T01:08:31.863Z,2.80
2022-09-14T01:09:32.599Z,3.50
2022-09-14T01:10:31.716Z,2.60
2022-09-14T01:11:31.668Z,3.30
2022-09-14T01:12:31.614Z,2.90
2022-09-14T01:13:31.545Z,2.80
2022-09-14T01:14:31.482Z,9.90
2022-09-14T01:15:32.997Z,2.80
2022-09-14T01:16:31.416Z,3.00
2022-09-14T01:17:31.267Z,2.80
2022-09-14T01:18:31.210Z,3.30
2022-09-14T01:19:31.142Z,2.80
2022-09-14T01:20:31.084Z,3.80
2022-09-14T01:21:32.588Z,6.60
2022-09-14T01:22:30.942Z,2.90
2022-09-14T01:23:30.876Z,2.80
2022-09-14T01:24:30.830Z,2.30
2022-09-14T01:25:30.745Z,2.60
2022-09-14T01:26:30.687Z,6.20
2022-09-14T01:27:30.638Z,3.10
2022-09-14T01:28:30.572Z,2.50
2022-09-14T01:29:30.481Z,2.80
2022-09-14T01:30:30.421Z,3.10
2022-09-14T01:31:30.405Z,5.40
2022-09-14T01:32:30.291Z,2.90
2022-09-14T01:33:31.012Z,3.60
2022-09-14T01:34:30.165Z,2.80
2022-09-14T01:35:30.110Z,2.70
2022-09-14T01:36:30.043Z,3.00
2022-09-14T01:37:29.981Z,3.00
2022-09-14T01:38:29.917Z,2.90
2022-09-14T01:39:29.868Z,3.00
2022-09-14T01:40:29.829Z,3.00
2022-09-14T01:41:29.706Z,2.50
2022-09-14T01:42:29.656Z,2.50
2022-09-14T01:43:29.590Z,2.60
2022-09-14T01:44:29.513Z,4.80
2022-09-14T01:45:30.263Z,3.20
2022-09-14T01:46:29.388Z,2.80
2022-09-14T01:47:29.338Z,4.00
2022-09-14T01:48:29.276Z,3.00
2022-09-14T01:49:29.207Z,3.40
2022-09-14T01:50:29.132Z,2.60
2022-09-14T01:51:29.852Z,2.40
2022-09-14T01:52:28.998Z,3.60
2022-09-14T01:53:28.945Z,2.10
2022-09-14T01:54:28.864Z,3.70
2022-09-14T01:55:28.827Z,2.60
2022-09-14T01:56:28.737Z,3.60
2022-09-14T01:57:28.711Z,3.20
2022-09-14T01:58:28.610Z,3.90
2022-09-14T01:59:28.541Z,3.70
2022-09-14T02:00:28.482Z,5.00
2022-09-14T02:01:28.442Z,2.40
2022-09-14T02:02:28.442Z,7.20
2022-09-14T02:03:29.089Z,4.40
2022-09-14T02:04:28.240Z,4.90
2022-09-14T02:05:28.152Z,2.50
2022-09-14T02:06:28.107Z,2.30
2022-09-14T02:07:28.032Z,4.30
2022-09-14T02:08:27.965Z,2.50
2022-09-14T02:09:29.451Z,2.50
2022-09-14T02:10:27.849Z,5.50
2022-09-14T02:11:27.780Z,4.10
2022-09-14T02:12:27.714Z,3.50
2022-09-14T02:13:27.672Z,3.10
2022-09-14T02:14:27.574Z,3.20
2022-09-14T02:15:27.564Z,2.90
2022-09-14T02:16:27.538Z,4.80
2022-09-14T02:17:27.393Z,3.00
2022-09-14T02:18:28.148Z,2.70
2022-09-14T02:19:27.262Z,3.50
2022-09-14T02:20:27.199Z,4.20
2022-09-14T02:21:27.181Z,2.70
2022-09-14T02:22:27.061Z,3.20
2022-09-14T02:23:27.002Z,2.60
2022-09-14T02:24:26.928Z,2.80
2022-09-14T02:25:26.880Z,3.00
2022-09-14T02:26:26.852Z,3.00
2022-09-14T02:27:26.764Z,5.90
2022-09-14T02:28:26.684Z,2.90
2022-09-14T02:29:26.600Z,3.00
2022-09-14T02:30:26.543Z,4.40
2022-09-14T02:31:26.556Z,3.00
2022-09-14T02:32:26.422Z,2.80
2022-09-14T02:33:28.660Z,2.80
2022-09-14T02:34:26.290Z,4.90
2022-09-14T02:35:26.225Z,2.70
2022-09-14T02:36:26.160Z,2.90
2022-09-14T02:37:26.091Z,2.90
2022-09-14T02:38:26.038Z,3.60
2022-09-14T02:39:25.997Z,4.40
2022-09-14T02:40:25.956Z,5.20
2022-09-14T02:41:25.836Z,5.60
2022-09-14T02:42:25.774Z,2.90
2022-09-14T02:43:25.711Z,3.70
2022-09-14T02:44:25.634Z,3.10
2022-09-14T02:45:26.354Z,2.90
2022-09-14T02:46:25.559Z,4.30
2022-09-14T02:47:25.453Z,3.60
2022-09-14T02:48:25.388Z,9.10
2022-09-14T02:49:25.361Z,4.40
2022-09-14T02:50:25.242Z,3.00
2022-09-14T02:51:25.195Z,3.00
2022-09-14T02:52:25.117Z,4.80
2022-09-14T02:53:25.050Z,3.30
2022-09-14T02:54:24.994Z,3.50
2022-09-14T02:55:24.917Z,3.20
2022-09-14T02:56:24.854Z,3.70
2022-09-14T02:57:26.002Z,6.00
2022-09-14T02:58:24.734Z,4.90
2022-09-14T02:59:24.680Z,8.20
2022-09-14T03:00:24.598Z,8.40
2022-09-14T03:01:24.638Z,3.70
2022-09-14T03:02:24.609Z,7.60
2022-09-14T03:03:25.646Z,4.10
2022-09-14T03:04:24.339Z,8.80
2022-09-14T03:05:24.300Z,4.20
2022-09-14T03:06:24.210Z,3.50
2022-09-14T03:07:24.153Z,6.30
2022-09-14T03:08:24.046Z,6.70
2022-09-14T03:09:23.983Z,4.80
2022-09-14T03:10:23.895Z,8.00
2022-09-14T03:11:23.905Z,6.50
2022-09-14T03:12:23.834Z,4.20
2022-09-14T03:13:23.775Z,4.40
2022-09-14T03:14:23.708Z,6.80
2022-09-14T03:15:23.646Z,4.70
2022-09-14T03:16:23.670Z,5.50
2022-09-14T03:17:23.530Z,7.30
2022-09-14T03:18:23.446Z,4.30
2022-09-14T03:19:23.380Z,8.80
2022-09-14T03:20:23.342Z,9.70
2022-09-14T03:21:23.262Z,6.30
2022-09-14T03:22:23.195Z,4.60
2022-09-14T03:23:23.131Z,5.20
2022-09-14T03:24:23.054Z,5.20
2022-09-14T03:25:23.025Z,8.30
2022-09-14T03:26:22.936Z,5.80
2022-09-14T03:27:24.409Z,4.80
2022-09-14T03:28:22.839Z,11.70
2022-09-14T03:29:22.723Z,8.50
2022-09-14T03:30:22.666Z,11.00
2022-09-14T03:31:22.705Z,4.90
2022-09-14T03:32:22.532Z,10.90
2022-09-14T03:33:24.023Z,12.90
2022-09-14T03:34:22.411Z,13.80
2022-09-14T03:35:22.332Z,15.40
2022-09-14T03:36:22.276Z,5.00
2022-09-14T03:37:22.205Z,5.20
2022-09-14T03:38:22.134Z,4.20
2022-09-14T03:39:22.074Z,6.80
2022-09-14T03:40:22.383Z,4.50
2022-09-14T03:41:21.940Z,8.90
2022-09-14T03:42:21.918Z,9.60
2022-09-14T03:43:21.813Z,8.20
2022-09-14T03:44:21.744Z,4.60
2022-09-14T03:45:22.909Z,7.40
2022-09-14T03:46:21.714Z,9.60
2022-09-14T03:47:21.559Z,7.10
2022-09-14T03:48:21.485Z,6.00
2022-09-14T03:49:21.422Z,6.30
2022-09-14T03:50:21.373Z,4.00
2022-09-14T03:51:21.315Z,7.70
2022-09-14T03:52:21.269Z,9.40
2022-09-14T03:53:21.174Z,11.70
2022-09-14T03:54:21.104Z,7.90
2022-09-14T03:55:21.026Z,11.50
2022-09-14T03:56:20.976Z,10.50
2022-09-14T03:57:20.931Z,8.30
2022-09-14T03:58:20.835Z,11.40
2022-09-14T03:59:20.781Z,11.70
2022-09-14T04:00:20.739Z,18.80
2022-09-14T04:01:20.730Z,8.60
2022-09-14T04:02:20.598Z,12.20
2022-09-14T04:03:21.807Z,13.80
2022-09-14T04:04:20.456Z,14.10
2022-09-14T04:05:21.909Z,14.50
2022-09-14T04:06:20.316Z,6.40
2022-09-14T04:07:20.277Z,12.50
2022-09-14T04:08:20.188Z,9.40
2022-09-14T04:09:20.169Z,6.10
2022-09-14T04:10:20.070Z,10.40
2022-09-14T04:11:20.020Z,8.60
2022-09-14T04:12:19.927Z,7.20
2022-09-14T04:13:19.898Z,16.40
2022-09-14T04:14:19.813Z,16.10
2022-09-14T04:15:19.766Z,10.10
2022-09-14T04:16:19.706Z,9.80
2022-09-14T04:17:19.610Z,12.10
2022-09-14T04:18:19.567Z,6.70
2022-09-14T04:19:19.492Z,15.50
2022-09-14T04:20:19.435Z,16.20
2022-09-14T04:21:19.376Z,12.50
2022-09-14T04:22:19.305Z,9.80
2022-09-14T04:23:19.235Z,17.90
2022-09-14T04:24:19.516Z,19.30
2022-09-14T04:25:19.097Z,11.60
2022-09-14T04:26:19.017Z,13.90
2022-09-14T04:27:18.989Z,13.20
2022-09-14T04:28:20.477Z,13.90
2022-09-14T04:29:18.834Z,17.20
2022-09-14T04:30:18.767Z,9.90
2022-09-14T04:31:18.817Z,7.90
2022-09-14T04:32:18.633Z,15.70
2022-09-14T04:33:26.050Z,11.60
2022-09-14T04:34:18.502Z,18.50
2022-09-14T04:35:18.429Z,10.90
2022-09-14T04:36:18.378Z,9.00
2022-09-14T04:37:18.294Z,14.60
2022-09-14T04:38:18.249Z,15.90
2022-09-14T04:39:18.145Z,14.30
2022-09-14T04:40:18.121Z,14.40
2022-09-14T04:41:17.978Z,12.10
2022-09-14T04:42:17.968Z,4.70
2022-09-14T04:43:17.889Z,11.10
2022-09-14T04:44:17.821Z,14.40
2022-09-14T04:45:17.748Z,16.90
2022-09-14T04:46:17.759Z,9.20
2022-09-14T04:47:17.602Z,10.10
2022-09-14T04:48:17.530Z,14.80
2022-09-14T04:49:17.499Z,13.60
2022-09-14T04:50:17.412Z,6.30
2022-09-14T04:51:18.107Z,15.20
2022-09-14T04:52:17.275Z,10.20
2022-09-14T04:53:17.205Z,17.50
2022-09-14T04:54:17.132Z,11.90
2022-09-14T04:55:17.092Z,16.30
2022-09-14T04:56:17.006Z,11.50
2022-09-14T04:57:17.714Z,8.40
2022-09-14T04:58:16.887Z,9.00
2022-09-14T04:59:16.822Z,15.60
2022-09-14T05:00:16.756Z,7.10
2022-09-14T05:01:16.681Z,10.80
2022-09-14T05:02:17.372Z,12.70
2022-09-14T05:03:16.649Z,14.70
2022-09-14T05:04:16.496Z,12.10
2022-09-14T05:05:16.437Z,13.40
2022-09-14T05:06:16.353Z,12.00
2022-09-14T05:07:16.307Z,12.20
2022-09-14T05:08:16.235Z,25.50
2022-09-14T05:09:16.194Z,11.00
2022-09-14T05:10:16.091Z,17.60
2022-09-14T05:11:16.033Z,16.00
2022-09-14T05:12:15.964Z,15.70
2022-09-14T05:13:15.916Z,7.20
2022-09-14T05:14:15.839Z,6.30
2022-09-14T05:15:15.795Z,9.60
2022-09-14T05:16:15.754Z,14.10
2022-09-14T05:17:15.646Z,9.90
2022-09-14T05:18:15.571Z,10.50
2022-09-14T05:19:15.517Z,16.60
2022-09-14T05:20:15.439Z,9.70
2022-09-14T05:21:15.399Z,7.40
2022-09-14T05:22:15.340Z,13.00
2022-09-14T05:23:15.271Z,9.20
2022-09-14T05:24:15.207Z,10.70
2022-09-14T05:25:15.127Z,10.20
2022-09-14T05:26:15.057Z,12.70
2022-09-14T05:27:15.026Z,11.40
2022-09-14T05:28:14.931Z,7.80
2022-09-14T05:29:15.745Z,9.40
2022-09-14T05:30:14.801Z,16.30
2022-09-14T05:31:14.777Z,10.20
2022-09-14T05:32:14.661Z,15.20
2022-09-14T05:33:14.637Z,23.00
2022-09-14T05:34:14.547Z,10.60
2022-09-14T05:35:14.507Z,11.40
2022-09-14T05:36:14.400Z,12.70
2022-09-14T05:37:14.352Z,15.60
2022-09-14T05:38:14.280Z,11.40
2022-09-14T05:39:21.038Z,14.70
2022-09-14T05:40:14.241Z,14.30
2022-09-14T05:41:14.088Z,15.30
2022-09-14T05:42:14.046Z,12.10
2022-09-14T05:43:14.106Z,5.70
2022-09-14T05:44:13.873Z,14.90
2022-09-14T05:45:13.845Z,8.90
2022-09-14T05:46:13.956Z,15.40
2022-09-14T05:47:13.694Z,12.20
2022-09-14T05:48:13.622Z,17.30
2022-09-14T05:49:13.585Z,13.50
2022-09-14T05:50:13.486Z,11.50
2022-09-14T05:51:13.471Z,11.50
2022-09-14T05:52:13.359Z,17.80
2022-09-14T05:53:13.320Z,11.50
2022-09-14T05:54:13.228Z,10.20
2022-09-14T05:55:13.178Z,17.00
2022-09-14T05:56:13.126Z,10.00
2022-09-14T05:57:15.360Z,9.10
2022-09-14T05:58:12.964Z,12.20
2022-09-14T05:59:12.931Z,11.10
2022-09-14T06:00:12.845Z,8.50
2022-09-14T06:01:12.765Z,10.20
2022-09-14T06:02:15.356Z,5.80
2022-09-14T06:03:12.673Z,5.50
2022-09-14T06:04:12.602Z,7.10
2022-09-14T06:05:12.567Z,12.40
2022-09-14T06:06:12.474Z,13.10
2022-09-14T06:07:18.835Z,20.10
2022-09-14T06:08:12.338Z,10.50
2022-09-14T06:09:12.293Z,7.40
2022-09-14T06:10:12.180Z,10.40
2022-09-14T06:11:12.136Z,15.60
2022-09-14T06:12:12.069Z,9.50
2022-09-14T06:13:11.989Z,14.90
2022-09-14T06:14:11.930Z,26.30
2022-09-14T06:15:12.652Z,10.90
2022-09-14T06:16:11.806Z,14.70
2022-09-14T06:17:11.729Z,15.10
2022-09-14T06:18:11.676Z,11.70
2022-09-14T06:19:11.596Z,9.50
2022-09-14T06:20:11.542Z,14.20
2022-09-14T06:21:11.483Z,11.10
2022-09-14T06:22:11.406Z,11.60
2022-09-14T06:23:11.352Z,12.10
2022-09-14T06:24:11.270Z,12.00
2022-09-14T06:25:11.219Z,17.80
2022-09-14T06:26:11.139Z,9.00
2022-09-14T06:27:11.086Z,11.50
2022-09-14T06:28:11.009Z,11.60
2022-09-14T06:29:10.979Z,12.70
2022-09-14T06:30:10.895Z,13.80
2022-09-14T06:31:10.835Z,8.10
2022-09-14T06:32:10.759Z,8.80
2022-09-14T06:33:10.692Z,21.80
2022-09-14T06:34:10.628Z,10.50
2022-09-14T06:35:12.535Z,8.40
2022-09-14T06:36:10.499Z,6.60
2022-09-14T06:37:10.446Z,8.30
2022-09-14T06:38:10.382Z,20.20
2022-09-14T06:39:10.311Z,18.50
2022-09-14T06:40:10.328Z,10.80
2022-09-14T06:41:10.186Z,9.70
2022-09-14T06:42:10.109Z,14.40
2022-09-14T06:43:10.049Z,15.50
2022-09-14T06:44:09.962Z,10.30
2022-09-14T06:45:13.445Z,9.20
2022-09-14T06:46:09.851Z,13.10
2022-09-14T06:47:09.778Z,12.20
2022-09-14T06:48:09.705Z,11.10
2022-09-14T06:49:09.652Z,12.30
2022-09-14T06:50:09.569Z,20.40
2022-09-14T06:51:09.524Z,20.50
2022-09-14T06:52:09.454Z,15.90
2022-09-14T06:53:09.389Z,15.90
2022-09-14T06:54:09.346Z,14.00
2022-09-14T06:55:09.265Z,14.20
2022-09-14T06:56:09.179Z,15.10
2022-09-14T06:57:09.145Z,14.80
2022-09-14T06:58:09.050Z,21.90
2022-09-14T06:59:08.992Z,13.90
2022-09-14T07:00:08.916Z,12.30
2022-09-14T07:01:08.855Z,15.00
2022-09-14T07:02:08.796Z,14.70
2022-09-14T07:03:08.815Z,17.50
2022-09-14T07:04:08.700Z,10.80
2022-09-14T07:05:08.613Z,15.10
2022-09-14T07:06:08.534Z,23.90
2022-09-14T07:07:08.476Z,24.50
2022-09-14T07:08:12.060Z,15.20
2022-09-14T07:09:10.687Z,19.20
2022-09-14T07:10:08.291Z,15.30
2022-09-14T07:11:08.216Z,16.30
2022-09-14T07:12:08.158Z,24.30
2022-09-14T07:13:08.102Z,14.60
2022-09-14T07:14:08.018Z,19.60
2022-09-14T07:15:07.969Z,14.90
2022-09-14T07:16:07.906Z,7.80
2022-09-14T07:17:07.825Z,16.60
2022-09-14T07:18:07.772Z,11.80
2022-09-14T07:19:07.740Z,20.00
2022-09-14T07:20:07.617Z,14.30
2022-09-14T07:21:07.601Z,25.00
2022-09-14T07:22:07.547Z,36.90
2022-09-14T07:23:07.464Z,19.70
2022-09-14T07:24:07.370Z,24.00
2022-09-14T07:25:07.326Z,25.60
2022-09-14T07:26:07.264Z,18.80
2022-09-14T07:27:09.572Z,16.90
2022-09-14T07:28:07.107Z,14.30
2022-09-14T07:29:07.092Z,16.30
2022-09-14T07:30:06.963Z,36.00
2022-09-14T07:31:08.141Z,29.90
2022-09-14T07:32:06.889Z,19.10
2022-09-14T07:33:06.941Z,24.30
2022-09-14T07:34:06.718Z,38.50
2022-09-14T07:35:06.695Z,28.10
2022-09-14T07:36:06.677Z,28.20
2022-09-14T07:37:06.500Z,25.70
2022-09-14T07:38:06.486Z,26.60
2022-09-14T07:39:06.422Z,50.90
2022-09-14T07:40:06.368Z,22.10
2022-09-14T07:41:06.277Z,32.90
2022-09-14T07:42:06.196Z,32.80
2022-09-14T07:43:06.152Z,21.60
2022-09-14T07:44:06.100Z,28.70
2022-09-14T07:45:06.074Z,29.50
2022-09-14T07:46:06.042Z,25.20
2022-09-14T07:47:05.876Z,28.10
2022-09-14T07:48:05.827Z,11.40
2022-09-14T07:49:05.792Z,16.40
2022-09-14T07:50:05.694Z,19.30
2022-09-14T07:51:06.839Z,17.00
2022-09-14T07:52:05.546Z,20.30
2022-09-14T07:53:05.462Z,32.50
2022-09-14T07:54:05.426Z,34.50
2022-09-14T07:55:05.333Z,30.90
2022-09-14T07:56:05.304Z,22.20
2022-09-14T07:57:05.237Z,29.60
2022-09-14T07:58:05.161Z,18.20
2022-09-14T07:59:31.250Z,34.40
2022-09-14T08:00:05.041Z,30.50
2022-09-14T08:01:05.019Z,37.50
2022-09-14T08:02:04.973Z,17.30
2022-09-14T08:03:04.852Z,14.20
2022-09-14T08:04:05.584Z,44.40
2022-09-14T08:05:04.733Z,15.60
2022-09-14T08:06:04.636Z,25.50
2022-09-14T08:07:04.591Z,23.50
2022-09-14T08:08:04.515Z,22.00
2022-09-14T08:09:04.485Z,29.90
2022-09-14T08:10:04.402Z,21.90
2022-09-14T08:11:04.297Z,16.70
2022-09-14T08:12:04.263Z,18.30
2022-09-14T08:13:04.183Z,28.20
2022-09-14T08:14:04.803Z,36.40
2022-09-14T08:15:06.433Z,12.40
2022-09-14T08:16:04.053Z,21.40
2022-09-14T08:17:03.918Z,11.20
2022-09-14T08:18:03.862Z,13.50
2022-09-14T08:19:03.811Z,25.30
2022-09-14T08:20:03.745Z,21.10
2022-09-14T08:21:03.663Z,20.90
2022-09-14T08:22:03.586Z,24.60
2022-09-14T08:23:03.538Z,20.10
2022-09-14T08:24:03.444Z,14.10
2022-09-14T08:25:03.419Z,22.60
2022-09-14T08:26:03.391Z,22.20
2022-09-14T08:27:03.286Z,32.30
2022-09-14T08:28:03.186Z,23.30
2022-09-14T08:29:03.173Z,23.80
2022-09-14T08:30:03.074Z,21.90
2022-09-14T08:31:03.023Z,17.50
2022-09-14T08:32:02.972Z,26.60
2022-09-14T08:33:04.415Z,18.10
2022-09-14T08:34:02.841Z,16.10
2022-09-14T08:35:02.785Z,22.50
2022-09-14T08:36:02.659Z,17.70
2022-09-14T08:37:02.601Z,16.00
2022-09-14T08:38:02.569Z,21.80
2022-09-14T08:39:02.496Z,16.00
2022-09-14T08:40:02.494Z,23.10
2022-09-14T08:41:02.339Z,12.60
2022-09-14T08:42:02.279Z,17.90
2022-09-14T08:43:02.251Z,19.50
2022-09-14T08:44:02.141Z,15.40
2022-09-14T08:45:04.129Z,17.00
2022-09-14T08:46:02.116Z,21.60
2022-09-14T08:47:01.934Z,21.80
2022-09-14T08:48:01.904Z,23.20
2022-09-14T08:49:01.812Z,17.40
2022-09-14T08:50:01.748Z,13.10
2022-09-14T08:51:02.484Z,29.20
2022-09-14T08:52:01.620Z,19.70
2022-09-14T08:53:01.539Z,20.70
2022-09-14T08:54:01.505Z,12.30
2022-09-14T08:55:01.417Z,17.60
2022-09-14T08:56:01.381Z,14.90
2022-09-14T08:57:02.493Z,11.50
2022-09-14T08:58:01.251Z,14.00
2022-09-14T08:59:01.148Z,15.10
2022-09-14T09:00:01.085Z,13.80
2022-09-14T09:01:01.090Z,10.70
2022-09-14T09:02:00.959Z,11.10
2022-09-14T09:03:02.494Z,14.90
2022-09-14T09:04:00.894Z,10.60
2022-09-14T09:05:00.799Z,16.10
2022-09-14T09:06:00.713Z,7.70
2022-09-14T09:07:00.653Z,12.90
2022-09-14T09:08:00.612Z,10.70
2022-09-14T09:09:02.152Z,16.90
2022-09-14T09:10:00.430Z,11.40
2022-09-14T09:11:00.395Z,13.20
2022-09-14T09:12:00.468Z,19.60
2022-09-14T09:13:00.280Z,21.00
2022-09-14T09:14:00.190Z,14.30
2022-09-14T09:15:00.159Z,17.50
2022-09-14T09:16:00.197Z,15.70
2022-09-14T09:16:59.989Z,22.60
2022-09-14T09:17:59.911Z,16.10
2022-09-14T09:18:59.870Z,14.50
2022-09-14T09:19:59.799Z,11.60
2022-09-14T09:21:01.273Z,17.60
2022-09-14T09:21:59.667Z,28.30
2022-09-14T09:22:59.626Z,15.00
2022-09-14T09:23:59.540Z,6.70
2022-09-14T09:24:59.486Z,8.40
2022-09-14T09:25:59.389Z,11.90
2022-09-14T09:26:59.361Z,16.60
2022-09-14T09:27:59.286Z,10.00
2022-09-14T09:28:59.228Z,10.10
2022-09-14T09:29:59.149Z,12.30
2022-09-14T09:30:59.214Z,15.30
2022-09-14T09:31:59.167Z,20.90
2022-09-14T09:32:58.986Z,8.80
2022-09-14T09:33:58.889Z,14.80
2022-09-14T09:34:58.865Z,7.70
2022-09-14T09:35:58.777Z,17.80
2022-09-14T09:36:58.677Z,17.70
2022-09-14T09:37:59.201Z,14.10
2022-09-14T09:39:04.852Z,16.80
2022-09-14T09:39:58.557Z,10.30
2022-09-14T09:40:58.611Z,11.80
2022-09-14T09:41:58.466Z,16.00
2022-09-14T09:42:58.427Z,12.30
2022-09-14T09:43:58.231Z,8.50
2022-09-14T09:45:02.579Z,10.90
2022-09-14T09:45:58.099Z,10.40
2022-09-14T09:46:58.389Z,9.80
2022-09-14T09:47:57.980Z,16.10
2022-09-14T09:48:57.903Z,17.00
2022-09-14T09:49:57.826Z,18.90
2022-09-14T09:50:58.594Z,18.60
2022-09-14T09:51:57.737Z,12.10
2022-09-14T09:52:57.644Z,9.90
2022-09-14T09:53:57.610Z,6.70
2022-09-14T09:54:57.516Z,14.10
2022-09-14T09:55:57.447Z,11.40
2022-09-14T09:56:57.411Z,16.70
2022-09-14T09:57:57.326Z,16.60
2022-09-14T09:58:57.293Z,20.70
2022-09-14T09:59:57.185Z,17.50
2022-09-14T10:00:57.258Z,14.50
2022-09-14T10:01:57.124Z,11.90
2022-09-14T10:02:59.335Z,20.80
2022-09-14T10:03:56.924Z,11.60
2022-09-14T10:04:56.859Z,20.70
2022-09-14T10:05:56.790Z,8.40
2022-09-14T10:06:56.742Z,15.90
2022-09-14T10:07:56.656Z,13.80
2022-09-14T10:08:57.413Z,10.00
2022-09-14T10:09:56.537Z,21.10
2022-09-14T10:10:56.459Z,11.30
2022-09-14T10:11:56.397Z,12.60
2022-09-14T10:12:56.339Z,9.50
2022-09-14T10:13:56.291Z,10.90
2022-09-14T10:14:56.996Z,8.30
2022-09-14T10:15:56.182Z,9.50
2022-09-14T10:21:55.031Z,7.70
2022-09-14T10:22:55.941Z,12.70
2022-09-14T10:23:55.918Z,6.90
2022-09-14T10:24:55.805Z,12.20
2022-09-14T10:25:55.735Z,16.10
2022-09-14T10:26:55.682Z,18.20
2022-09-14T10:27:55.607Z,9.20
2022-09-14T10:28:55.566Z,10.60
2022-09-14T10:29:55.479Z,12.00
2022-09-14T10:30:55.458Z,9.20
2022-09-14T10:31:55.343Z,6.40
2022-09-14T10:32:57.271Z,10.50
2022-09-14T10:33:55.219Z,10.60
2022-09-14T10:34:55.132Z,9.00
2022-09-14T10:35:55.086Z,12.70
2022-09-14T10:36:55.027Z,12.30
2022-09-14T10:37:54.958Z,15.30
2022-09-14T10:38:54.935Z,10.20
2022-09-14T10:39:54.916Z,15.50
2022-09-14T10:40:54.808Z,11.70
2022-09-14T10:41:54.731Z,8.70
2022-09-14T10:42:54.655Z,15.50
2022-09-14T10:43:54.565Z,12.60
2022-09-14T10:44:54.513Z,9.90
2022-09-14T10:45:54.453Z,15.20
2022-09-14T10:46:54.428Z,9.50
2022-09-14T10:47:54.291Z,16.70
2022-09-14T10:48:54.231Z,18.90
2022-09-14T10:49:54.164Z,11.70
2022-09-14T10:50:56.369Z,19.80
2022-09-14T10:51:54.066Z,22.20
2022-09-14T10:52:53.981Z,15.90
2022-09-14T10:53:53.920Z,17.70
2022-09-14T10:54:54.456Z,22.60
2022-09-14T10:55:53.770Z,27.20
2022-09-14T10:56:54.958Z,23.20
2022-09-14T10:57:53.664Z,18.50
2022-09-14T10:58:53.613Z,23.00
2022-09-14T10:59:53.515Z,26.70
2022-09-14T11:00:53.481Z,18.30
2022-09-14T11:01:53.571Z,17.60
2022-09-14T11:02:53.464Z,18.20
2022-09-14T11:03:53.359Z,33.60
2022-09-14T11:04:53.785Z,27.70
2022-09-14T11:05:53.116Z,18.60
2022-09-14T11:06:53.075Z,27.50
2022-09-14T11:07:54.047Z,32.90
2022-09-14T11:08:53.217Z,32.80
2022-09-14T11:09:52.883Z,38.90
2022-09-14T11:10:52.948Z,43.50
2022-09-14T11:11:52.766Z,36.50
2022-09-14T11:12:52.681Z,31.20
2022-09-14T11:13:52.641Z,50.30
2022-09-14T11:14:52.582Z,38.10
2022-09-14T11:15:52.537Z,41.60
2022-09-14T11:16:52.411Z,44.90
2022-09-14T11:17:52.354Z,50.80
2022-09-14T11:18:52.300Z,57.90
2022-09-14T11:19:52.213Z,53.30
2022-09-14T11:20:52.263Z,57.70
2022-09-14T11:21:52.107Z,47.80
2022-09-14T11:22:52.031Z,53.60
2022-09-14T11:23:51.993Z,67.30
2022-09-14T11:24:51.891Z,68.60
2022-09-14T11:25:51.818Z,74.50
2022-09-14T11:26:51.868Z,71.80
2022-09-14T11:27:52.581Z,65.30
2022-09-14T11:28:51.618Z,72.80
2022-09-14T11:29:51.574Z,158.00
2022-09-14T11:30:51.548Z,164.00
2022-09-14T11:32:10.141Z,181.70
2022-09-14T11:32:53.749Z,204.30
2022-09-14T11:33:51.322Z,239.30
2022-09-14T11:34:51.246Z,280.80
2022-09-14T11:35:51.200Z,247.30
2022-09-14T11:36:51.102Z,332.60
2022-09-14T11:37:51.049Z,349.30
2022-09-14T11:38:51.024Z,307.60
2022-09-14T11:39:50.962Z,203.00
2022-09-14T11:40:50.854Z,225.70
2022-09-14T11:41:50.787Z,231.60
2022-09-14T11:42:50.718Z,200.70
2022-09-14T11:43:50.676Z,226.70
2022-09-14T11:44:51.369Z,201.40
2022-09-14T11:45:50.575Z,222.10
2022-09-14T11:46:50.519Z,190.10
2022-09-14T11:47:50.405Z,150.00
2022-09-14T11:48:50.321Z,205.00
2022-09-14T11:49:50.251Z,186.30
2022-09-14T11:50:50.958Z,166.50
2022-09-14T11:51:50.134Z,268.70
2022-09-14T11:52:50.058Z,190.10
2022-09-14T11:53:49.988Z,183.30
2022-09-14T11:54:49.964Z,171.10
2022-09-14T11:55:49.869Z,206.90
2022-09-14T11:56:51.374Z,126.50
2022-09-14T11:57:49.739Z,155.90
2022-09-14T11:58:49.706Z,133.80
2022-09-14T11:59:49.605Z,180.50
2022-09-14T12:00:49.535Z,143.40
2022-09-14T12:01:49.486Z,170.10
2022-09-14T12:02:49.469Z,189.50
2022-09-14T12:03:52.030Z,108.70
2022-09-14T12:04:49.283Z,109.00
2022-09-14T12:05:49.221Z,111.30
2022-09-14T12:06:49.154Z,117.00
2022-09-14T12:07:49.082Z,160.60
2022-09-14T12:08:49.807Z,129.70
2022-09-14T12:09:48.946Z,117.70
2022-09-14T12:10:48.908Z,296.80
2022-09-14T12:11:48.829Z,110.30
2022-09-14T12:12:48.764Z,170.20
2022-09-14T12:13:48.770Z,94.00
2022-09-14T12:14:48.658Z,101.50
2022-09-14T12:15:48.610Z,99.20
2022-09-14T12:16:48.505Z,99.80
2022-09-14T12:17:48.447Z,102.80
2022-09-14T12:18:48.358Z,91.30
2022-09-14T12:19:48.293Z,110.60
2022-09-14T12:20:48.260Z,110.10
2022-09-14T12:21:48.185Z,83.70
2022-09-14T12:22:50.120Z,90.00
2022-09-14T12:23:48.103Z,105.30
2022-09-14T12:24:47.984Z,94.80
2022-09-14T12:25:47.925Z,74.80
2022-09-14T12:26:50.181Z,99.20
2022-09-14T12:27:47.771Z,74.90
2022-09-14T12:28:47.708Z,84.80
2022-09-14T12:29:47.653Z,74.20
2022-09-14T12:30:47.601Z,86.10
2022-09-14T12:31:47.507Z,70.80
2022-09-14T12:32:48.243Z,60.20
2022-09-14T12:33:47.392Z,55.30
2022-09-14T12:34:47.342Z,83.50
2022-09-14T12:35:47.260Z,73.80
2022-09-14T12:36:47.182Z,63.00
2022-09-14T12:37:47.141Z,67.50
2022-09-14T12:38:47.082Z,73.30
2022-09-14T12:39:47.028Z,60.60
2022-09-14T12:40:46.921Z,65.00
2022-09-14T12:41:46.862Z,60.30
2022-09-14T12:42:46.805Z,54.30
2022-09-14T12:43:46.725Z,49.40
2022-09-14T12:44:48.212Z,62.20
2022-09-14T12:45:46.598Z,64.40
2022-09-14T12:46:46.593Z,73.40
2022-09-14T12:47:46.508Z,63.70
2022-09-14T12:48:46.413Z,63.10
2022-09-14T12:49:46.334Z,79.10
2022-09-14T12:50:46.301Z,79.20
2022-09-14T12:51:46.224Z,72.20
2022-09-14T12:52:46.164Z,68.80
2022-09-14T12:53:46.072Z,73.00
2022-09-14T12:54:50.579Z,86.90
2022-09-14T12:55:45.949Z,89.20
2022-09-14T12:56:45.896Z,71.90
2022-09-14T12:57:45.813Z,90.70
2022-09-14T12:58:45.765Z,77.70
2022-09-14T12:59:45.700Z,90.40
2022-09-14T13:00:45.616Z,85.10
2022-09-14T13:01:45.619Z,86.40
2022-09-14T13:02:45.646Z,76.60
2022-09-14T13:03:45.434Z,83.20
2022-09-14T13:04:45.363Z,70.80